Airport View

Enter AWOS ICAO identifier for current METAR.

ex. KFNL

KY19 191250Z AUTO 19007KT 10SM SCT035 M24/M26 A3030 RMK AO2

19 Feb 2019 12:51

Frequency: 118.225

Phone: 701-663-0271

Other Area AWOS: KBIS - KD57 - KHZE - K7L2

TAF KBIS 191127Z 1912/2012 VRB03KT P6SM SKC FM191800 18008KT P6SM FEW200 FM200300 15006KT P6SM BKN030 FM200900 13005KT P6SM BKN015